Aktualne dane pomiarowe

Uwaga, wersja testowa! Automatyczne pobieranie danych za pomocą narzędzi lub skryptów to umożliwiających jest zabronione.

Dane meteo z obszaru Polski uzyskane na podstawie depesz SYNOP pobieranych co godzinę z NWS. Najedź myszką na symbol przedstawiony w tabeli, aby uzyskać informacje co do jego znaczenia. Prosimy pamiętać, że to testowa wersja strony, która jeszcze nie jest ukończona. Stworzono również jest krótki FAQ dotyczący korzystania z tej podstrony Anomalie temperatury w chwili obecnej odniesione są do okresu referencyjnego 1951-2016. Okres ten będzie później zmieniony na 1981-2010. Kliknij ikonę aby pobrać plik CSV. Kliknij ikonę aby wygenerować mapę synoptyczną dla danego terminu.

Wybierz Datę:    

        

Zakopane (12625)

Dane terminowe dla wybranej stacji. Kliknij datę, aby otrzymać dane z tego terminu dla wszystkich stacji.

TemperaturaZachmurzenieWiatrCiśnienieOpadyPogoda
 Data t td wb tx tn tg rh  Nt Nl Cl Cm Ch ws wd g1 g2 wx mslp ppp ch 24h 12h t ww ww w1 w2  
2019-06-22 23:00:00 15.2 13.7 14.1--- 9130.0wxwxwxwx2wx--2- 921.5 -0.5---------
2019-06-22 22:00:00 15.8 14.0 14.5--- 8930.0wxwxwxwx1wx--1- 921.7 -0.2---------
2019-06-22 21:00:00 15.6 14.1 14.5--- 9115.0wxwxwx1wx--1- 921.6 -0.3---------
2019-06-22 20:00:00 16.2 14.6 15.1--- 9020.0wxwxwx1wx--1- 922.0 -0.1---------
2019-06-22 19:00:00 16.7 14.9 15.4--- 8920.0wxwxwx1wx--1- 921.9 -0.8---------
2019-06-22 18:00:00 17.1 14.7 15.4 20.8 15.3- 8620.0wxwxwx1wx--1- 921.9 -0.6- 11.012wx-w1w2--
2019-06-22 17:00:00 17.7 14.6 15.6--- 8230.0wxwxwxwxwx1wx--1- 922.1 -0.6---------
2019-06-22 16:00:00 17.7 14.8 15.7--- 8325.0wxwxwxwxwx1wx--1- 922.7 -0.8---------
2019-06-22 15:00:00 18.6 15.8 16.6--- 8425.0wxwxwxwxwx3wx--3- 922.5 -0.9---wx-w1w2--
2019-06-22 14:00:00 17.5 15.7 16.2--- 8925.0wxwxwxwx2wx--2- 922.7 -0.7---wx---
2019-06-22 13:00:00 15.4 14.1 14.5--- 921.3wxwxwx2wx--2- 923.5 0.0---wx-w1w2--
2019-06-22 12:00:00 17.8 14.7 15.7--- 8220.0wxwxwx1wx--1- 923.4 -0.3--6wx---
2019-06-22 11:00:00 20.0 13.9 16.0--- 6840.0wxwxwx1wx---- 923.4 -0.2---------
2019-06-22 10:00:00 19.9 13.8 15.9--- 6840.0wxwxwxwx1wx--1- 923.5 0.2---------
2019-06-22 09:00:00 18.8 13.6 15.4--- 7235.0wxwxwxwxwx2wx--2- 923.7 0.4---------
2019-06-22 08:00:00 17.2 14.7 15.5--- 8515.0wxwxwx2wx--2- 923.6 0.6---------
2019-06-22 07:00:00 17.7 15.1 15.9--- 8520.0wxwxwxwx2wx--2- 923.3 0.4---------
2019-06-22 06:00:00 16.4 14.9 15.3 18.0 12.6 12 9115.0wxwxwx0---0- 923.3 0.4 0.5 0.012----- 3.1
2019-06-22 05:00:00 14.9 14.1 14.3--- 9510.0wxwxwxwx1wx--1- 923.0 0.4---------
2019-06-22 04:00:00 14.4 13.8 13.9--- 9615.0wxwxwxwx1wx--1- 922.9 0.8---------
2019-06-22 03:00:00 13.8 13.3 13.4--- 9710.0wxwxwx1wx--1- 922.9 1.1---------
2019-06-22 02:00:00 13.0 12.7 12.7--- 988.0wxwxwx1wx--1- 922.6 1.0---wx---
2019-06-22 01:00:00 12.8 12.3 12.4--- 974.0wxwxwxwxwx1wx--1- 922.1 0.5---wx---
2019-06-22 00:00:00 13.4 12.8 12.9--- 968.0wxwxwxwxwx1wx--1- 921.8 0.2- 0.06wx---
2019-06-21 23:00:00 14.1 13.5 13.6--- 966.0wxwxwx1wx--1- 921.6 0.5---wx---
2019-06-21 22:00:00 15.3 14.2 14.5--- 9315.0wxwxwx1wx--1- 921.6 0.8---------
2019-06-21 21:00:00 15.3 14.0 14.4--- 9215.0wxwxwxwxwx0---0- 921.6 1.1---------
2019-06-21 20:00:00 15.6 13.8 14.3--- 8920.0wxwxwxwxwx1wx--1- 921.1 1.0---------
2019-06-21 19:00:00 16.6 14.6 15.2--- 8820.0wxwxwxwxwx1wx--1- 920.8 0.9---------
2019-06-21 18:00:00 17.9 14.8 15.8 22.0 16.0- 8230.0wxwxwxwxwx1wx-71- 920.5 1.2- 0.512wx-w1--
2019-06-21 17:00:00 17.5 14.9 15.7--- 8520.0wxwxwxwxwx1wx---- 920.1 0.9---wx---
2019-06-21 16:00:00 18.4 14.1 15.5--- 7635.0wxwxwxwxwx2wx--2- 919.9 0.3---wx---
2019-06-21 15:00:00 21.1 13.3 16.1--- 6140.0wxwxwxwxwx2wx---- 919.3 -0.1---wx-w1--
2019-06-21 14:00:00 21.9 13.0 16.3--- 5730.0wxwxwx1wx--1- 919.2 -0.5---------
2019-06-21 13:00:00 20.8 13.2 16.0--- 6240.0wxwxwxwxwx1wx--1- 919.6 0.0---wx---
2019-06-21 12:00:00 20.6 14.0 16.3--- 6640.0wxwxwxwxwx1wx--1- 919.4 -0.7- 0.16wx-w1w2--
2019-06-21 11:00:00 20.9 12.6 15.7--- 5940.0wxwxwxwxwx2wx---- 919.7 -0.4---------
2019-06-21 10:00:00 20.4 14.7 16.6--- 7030.0wxwxwxwxwx1wx---- 919.6 -0.1---------
2019-06-21 09:00:00 16.6 14.2 14.9--- 8620.0wxwxwx1wx--1- 920.1 0.7---wx-w1--
2019-06-21 08:00:00 16.1 13.9 14.6--- 8725.0wxwxwx1wx--1- 920.1 1.2---------
2019-06-21 07:00:00 16.8 14.1 14.9--- 8420.0wxwxwx1wx--1- 919.7 0.9---wx---
2019-06-21 06:00:00 16.5 14.7 15.2 17.5 14.2 14 8915.0wxwxwx1wx--1- 919.4 0.8 21.0 0.012----- 1.4
2019-06-21 05:00:00 15.9 14.8 15.1--- 9325.0wxwxwxwx1wx--1- 918.9 1.0---------
2019-06-21 04:00:00 14.5 13.9 14.0--- 9620.0wxwxwxwx0---0- 918.8 1.1---------
2019-06-21 03:00:00 14.3 13.3 13.6--- 9420.0wxwxwxwx0---0- 918.6 1.1---------
2019-06-21 02:00:00 14.3 13.2 13.5--- 9325.0wx-wx1wx--1- 917.9 0.3---------
2019-06-21 01:00:00 14.4 13.4 13.7--- 9425.0wx-wx1wx--1- 917.7 -0.1---------
2019-06-21 00:00:00 14.3 13.5 13.7--- 9515.0wx-wx1wx--1- 917.5 0.1- 0.06------
1.1 ms

 

Print Friendly, PDF & Email